Eagle River, Michigan
Current Conditions -  °F | °C
As of 12:53 PM on Friday 24 Oct 2014 (Local Time) from KCMX Reporting Station
Clear Clear  
Wind Chill: 51°   Ceiling: Unl
Heat Index: 51°   Visibility: 10mi
Dew Point: 45°   Wind: 6mph
Humidity: 80%   Direction: 160°SSE
Pressure: 29.86"   Gusts: NA
Location:  47.3621°N, 88.1281°W
Report Text: KCMX 241653Z AUTO 16005KT 10SM CLR 11/07 A2986 RMK AO2 SLP118 T01060072
Loading
Personal Weather Stations






























Interactive Weather Map
Tropical Storm Tracking
New forecast layout! Learn more

10-Day Weather Forecast

Advertisements
Track Severe Weather on mobile